Time,TemperatureF,DewpointF,PressureIn,WindDirection,WindDirectionDegrees,WindSpeedMPH,WindSpeedGustMPH,Humidity,HourlyPrecipIn,Conditions,Clouds,dailyrainin,SoftwareType,DateUTC
2013-10-02 00:00:00,58.6,58.4,29.31,SW,225,1.6,3.8,99,0.00,,,0.24,pywws,2013-10-01 23:00:00,
2013-10-02 00:11:00,58.6,58.4,29.31,NW,315,1.6,2.2,99,0.00,,,0.00,pywws,2013-10-01 23:11:00,
2013-10-02 00:20:00,58.6,58.4,29.31,SE,135,1.6,3.1,99,0.01,,,0.01,pywws,2013-10-01 23:20:00,
2013-10-02 00:31:00,58.6,58.4,29.31,NW,315,1.6,5.4,99,0.01,,,0.01,pywws,2013-10-01 23:31:00,
2013-10-02 00:40:00,58.6,58.4,29.31,East,90,1.6,3.8,99,0.06,,,0.06,pywws,2013-10-01 23:40:00,
2013-10-02 00:51:00,58.6,58.4,29.30,SE,135,2.2,4.5,99,0.07,,,0.07,pywws,2013-10-01 23:51:00,
2013-10-02 01:00:00,58.6,58.4,29.31,NE,45,0.7,2.2,99,0.07,,,0.07,pywws,2013-10-02 00:00:00,
2013-10-02 01:11:00,58.6,58.4,29.31,ENE,68,0.7,3.1,99,0.07,,,0.07,pywws,2013-10-02 00:11:00,
2013-10-02 01:20:00,58.6,58.4,29.31,NE,45,1.6,4.5,99,0.06,,,0.07,pywws,2013-10-02 00:20:00,
2013-10-02 01:25:00,58.6,58.4,29.31,SE,135,1.6,4.5,99,0.06,,,0.07,pywws,2013-10-02 00:25:00,
2013-10-02 01:31:00,58.5,58.2,29.31,West,270,0.7,2.2,99,0.06,,,0.07,pywws,2013-10-02 00:31:00,
2013-10-02 01:40:00,58.5,58.2,29.31,North,-999,0.0,2.2,99,0.01,,,0.07,pywws,2013-10-02 00:40:00,
2013-10-02 01:51:00,58.5,58.2,29.31,NW,315,1.6,3.8,99,0.00,,,0.07,pywws,2013-10-02 00:51:00,
2013-10-02 02:00:00,58.5,58.2,29.31,ENE,68,0.7,2.2,99,0.00,,,0.07,pywws,2013-10-02 01:00:00,
2013-10-02 02:11:00,58.5,58.2,29.31,East,90,1.6,3.1,99,0.00,,,0.07,pywws,2013-10-02 01:11:00,
2013-10-02 02:20:00,58.3,58.0,29.31,West,270,0.0,2.2,99,0.00,,,0.07,pywws,2013-10-02 01:20:00,
2013-10-02 02:31:00,58.5,58.2,29.31,East,90,0.7,3.8,99,0.00,,,0.07,pywws,2013-10-02 01:31:00,
2013-10-02 02:40:00,58.5,58.2,29.31,East,90,0.7,3.1,99,0.00,,,0.07,pywws,2013-10-02 01:40:00,
2013-10-02 02:51:00,58.5,58.2,29.30,ENE,68,0.7,2.2,99,0.00,,,0.07,pywws,2013-10-02 01:51:00,
2013-10-02 03:00:00,58.5,58.2,29.30,East,90,0.7,3.8,99,0.00,,,0.07,pywws,2013-10-02 02:00:00,
2013-10-02 03:11:00,58.5,58.2,29.30,NE,45,0.7,2.2,99,0.00,,,0.07,pywws,2013-10-02 02:11:00,
2013-10-02 03:20:00,58.5,58.2,29.29,SE,135,0.7,2.2,99,0.00,,,0.07,pywws,2013-10-02 02:20:00,
2013-10-02 03:31:00,58.5,58.2,29.29,NE,45,0.7,2.2,99,0.00,,,0.07,pywws,2013-10-02 02:31:00,
2013-10-02 03:40:00,58.5,58.2,29.29,SE,135,0.7,2.2,99,0.00,,,0.07,pywws,2013-10-02 02:40:00,
2013-10-02 03:51:00,58.5,58.2,29.29,East,90,0.7,1.6,99,0.00,,,0.07,pywws,2013-10-02 02:51:00,
2013-10-02 04:00:00,58.5,58.2,29.29,ESE,112,0.0,2.2,99,0.00,,,0.07,pywws,2013-10-02 03:00:00,
2013-10-02 04:11:00,58.5,58.2,29.29,East,90,0.7,1.6,99,0.00,,,0.07,pywws,2013-10-02 03:11:00,
2013-10-02 04:20:00,58.5,58.2,29.28,NE,45,0.0,1.6,99,0.00,,,0.07,pywws,2013-10-02 03:20:00,
2013-10-02 04:31:00,58.5,58.2,29.29,NW,315,0.7,2.2,99,0.00,,,0.07,pywws,2013-10-02 03:31:00,
2013-10-02 04:40:00,58.5,58.2,29.28,NE,45,0.7,2.2,99,0.00,,,0.07,pywws,2013-10-02 03:40:00,
2013-10-02 04:51:00,58.5,58.2,29.28,ENE,68,0.0,1.6,99,0.00,,,0.07,pywws,2013-10-02 03:51:00,
2013-10-02 05:00:00,58.5,58.2,29.28,East,90,0.0,2.2,99,0.00,,,0.07,pywws,2013-10-02 04:00:00,
2013-10-02 05:05:00,58.5,58.2,29.28,NE,45,0.7,2.2,99,0.00,,,0.07,pywws,2013-10-02 04:05:00,
2013-10-02 05:11:00,58.6,58.4,29.28,East,90,0.7,2.2,99,0.00,,,0.07,pywws,2013-10-02 04:11:00,
2013-10-02 05:15:00,58.5,58.2,29.28,NE,45,0.0,1.6,99,0.00,,,0.07,pywws,2013-10-02 04:15:00,
2013-10-02 05:20:00,58.5,58.2,29.28,East,90,0.0,0.7,99,0.00,,,0.07,pywws,2013-10-02 04:20:00,
2013-10-02 05:25:00,58.5,58.2,29.28,East,90,0.0,2.2,99,0.00,,,0.07,pywws,2013-10-02 04:25:00,
2013-10-02 05:31:00,58.5,58.2,29.28,East,90,0.7,2.2,99,0.00,,,0.07,pywws,2013-10-02 04:31:00,
2013-10-02 05:40:00,58.5,58.2,29.28,NE,45,0.0,0.7,99,0.00,,,0.07,pywws,2013-10-02 04:40:00,
2013-10-02 05:51:00,58.6,58.4,29.28,North,-999,0.0,0.7,99,0.00,,,0.07,pywws,2013-10-02 04:51:00,
2013-10-02 06:00:00,58.6,58.4,29.28,NE,45,0.0,0.0,99,0.00,,,0.07,pywws,2013-10-02 05:00:00,
2013-10-02 06:11:00,58.6,58.4,29.28,North,-999,0.0,0.7,99,0.00,,,0.07,pywws,2013-10-02 05:11:00,
2013-10-02 06:20:00,58.5,58.2,29.28,North,-999,0.0,0.7,99,0.00,,,0.07,pywws,2013-10-02 05:20:00,
2013-10-02 06:31:00,58.8,58.5,29.28,NE,45,1.6,3.1,99,0.00,,,0.07,pywws,2013-10-02 05:31:00,
2013-10-02 06:40:00,58.8,58.5,29.28,NW,315,0.7,1.6,99,0.00,,,0.07,pywws,2013-10-02 05:40:00,
2013-10-02 06:51:00,58.8,58.5,29.28,NE,45,0.7,3.1,99,0.00,,,0.07,pywws,2013-10-02 05:51:00,
2013-10-02 07:00:00,58.8,58.5,29.28,East,90,1.6,3.8,99,0.00,,,0.07,pywws,2013-10-02 06:00:00,
2013-10-02 07:11:00,58.8,58.5,29.28,SW,225,1.6,4.5,99,0.00,,,0.07,pywws,2013-10-02 06:11:00,
2013-10-02 07:20:00,58.8,58.5,29.28,East,90,0.0,1.6,99,0.00,,,0.07,pywws,2013-10-02 06:20:00,
2013-10-02 07:31:00,58.8,58.5,29.28,East,90,0.7,3.1,99,0.00,,,0.07,pywws,2013-10-02 06:31:00,
2013-10-02 07:40:00,59.0,58.7,29.28,NE,45,0.7,2.2,99,0.00,,,0.07,pywws,2013-10-02 06:40:00,
2013-10-02 07:51:00,59.0,58.7,29.28,SW,225,0.7,1.6,99,0.00,,,0.07,pywws,2013-10-02 06:51:00,
2013-10-02 08:00:00,59.2,58.9,29.28,East,90,0.7,2.2,99,0.00,,,0.07,pywws,2013-10-02 07:00:00,
2013-10-02 08:11:00,59.4,59.1,29.29,SW,225,0.7,3.1,99,0.01,,,0.08,pywws,2013-10-02 07:11:00,
2013-10-02 08:20:00,59.4,59.1,29.28,NE,45,0.0,1.6,99,0.01,,,0.08,pywws,2013-10-02 07:20:00,
2013-10-02 08:31:00,59.4,59.1,29.28,East,90,0.0,1.6,99,0.01,,,0.08,pywws,2013-10-02 07:31:00,
2013-10-02 08:40:00,59.4,59.1,29.28,SE,135,0.7,1.6,99,0.01,,,0.08,pywws,2013-10-02 07:40:00,
2013-10-02 08:51:00,59.5,59.3,29.28,West,270,0.0,1.6,99,0.01,,,0.08,pywws,2013-10-02 07:51:00,
2013-10-02 09:00:00,59.5,59.3,29.29,West,270,0.0,0.0,99,0.01,,,0.08,pywws,2013-10-02 08:00:00,
2013-10-02 09:11:00,59.7,59.4,29.29,NE,45,0.0,2.2,99,0.00,,,0.08,pywws,2013-10-02 08:11:00,
2013-10-02 09:20:00,59.9,59.6,29.29,NW,315,0.0,0.0,99,0.00,,,0.08,pywws,2013-10-02 08:20:00,
2013-10-02 09:31:00,60.3,60.0,29.29,East,90,0.0,0.7,99,0.00,,,0.08,pywws,2013-10-02 08:31:00,
2013-10-02 09:40:00,60.6,60.3,29.30,NE,45,0.0,0.0,99,0.00,,,0.08,pywws,2013-10-02 08:40:00,
2013-10-02 09:51:00,61.0,60.7,29.30,West,270,0.0,0.7,99,0.00,,,0.08,pywws,2013-10-02 08:51:00,
2013-10-02 10:00:00,61.2,60.9,29.30,NE,45,0.0,0.0,99,0.00,,,0.08,pywws,2013-10-02 09:00:00,
2013-10-02 10:11:00,61.0,60.7,29.30,NE,45,0.0,0.0,99,0.00,,,0.08,pywws,2013-10-02 09:11:00,
2013-10-02 10:20:00,61.0,60.7,29.31,NE,45,0.0,0.7,99,0.00,,,0.08,pywws,2013-10-02 09:20:00,
2013-10-02 10:31:00,61.2,60.9,29.31,East,90,0.0,0.7,99,0.00,,,0.08,pywws,2013-10-02 09:31:00,
2013-10-02 10:40:00,61.3,61.1,29.30,NW,315,0.0,1.6,99,0.00,,,0.08,pywws,2013-10-02 09:40:00,
2013-10-02 10:51:00,61.5,61.2,29.31,West,270,0.7,1.6,99,0.00,,,0.08,pywws,2013-10-02 09:51:00,
2013-10-02 11:00:00,61.9,61.6,29.30,NE,45,0.7,2.2,99,0.00,,,0.08,pywws,2013-10-02 10:00:00,
2013-10-02 11:11:00,62.1,61.8,29.30,SW,225,0.0,0.7,99,0.00,,,0.08,pywws,2013-10-02 10:11:00,
2013-10-02 11:20:00,62.2,62.0,29.30,NW,315,0.0,0.7,99,0.00,,,0.08,pywws,2013-10-02 10:20:00,
2013-10-02 11:31:00,62.6,62.3,29.30,NE,45,0.0,0.7,99,0.00,,,0.08,pywws,2013-10-02 10:31:00,
2013-10-02 11:40:00,62.6,62.3,29.30,SE,135,0.7,2.2,99,0.00,,,0.08,pywws,2013-10-02 10:40:00,
2013-10-02 11:51:00,62.6,62.3,29.30,NE,45,0.0,0.7,99,0.00,,,0.08,pywws,2013-10-02 10:51:00,
2013-10-02 12:00:00,63.5,63.2,29.30,ENE,68,0.0,0.7,99,0.00,,,0.08,pywws,2013-10-02 11:00:00,
2013-10-02 12:11:00,64.0,63.8,29.30,NW,315,0.0,1.6,99,0.00,,,0.08,pywws,2013-10-02 11:11:00,
2013-10-02 12:20:00,63.3,63.0,29.30,West,270,0.7,2.2,99,0.00,,,0.08,pywws,2013-10-02 11:20:00,
2013-10-02 12:31:00,63.0,62.7,29.30,SE,135,0.0,1.6,99,0.00,,,0.08,pywws,2013-10-02 11:31:00,
2013-10-02 12:40:00,63.0,62.7,29.31,NE,45,0.0,1.6,99,0.00,,,0.08,pywws,2013-10-02 11:40:00,
2013-10-02 12:51:00,63.0,62.7,29.30,SE,135,0.7,2.2,99,0.00,,,0.08,pywws,2013-10-02 11:51:00,
2013-10-02 13:00:00,64.0,63.8,29.30,NE,45,0.0,2.2,99,0.00,,,0.08,pywws,2013-10-02 12:00:00,
2013-10-02 13:11:00,63.7,63.4,29.30,NE,45,0.0,1.6,99,0.00,,,0.08,pywws,2013-10-02 12:11:00,
2013-10-02 13:20:00,-999.0,-99.9,29.30,North,-999,-999.0,-999.0,-999,0.00,,,0.08,pywws,2013-10-02 12:20:00,
2013-10-02 13:31:00,66.2,65.9,29.30,NE,45,0.7,1.6,99,0.01,,,0.09,pywws,2013-10-02 12:31:00,
2013-10-02 13:40:00,66.6,66.3,29.30,North,-999,0.0,1.6,99,0.01,,,0.09,pywws,2013-10-02 12:40:00,
2013-10-02 13:51:00,67.5,67.2,29.30,NW,315,0.7,1.6,99,0.01,,,0.09,pywws,2013-10-02 12:51:00,
2013-10-02 14:00:00,-999.0,-99.9,29.30,North,-999,-999.0,-999.0,-999,0.01,,,0.09,pywws,2013-10-02 13:00:00,
2013-10-02 14:11:00,67.3,67.0,29.29,West,270,0.0,0.7,99,0.01,,,0.09,pywws,2013-10-02 13:11:00,
2013-10-02 14:20:00,66.6,66.3,29.30,NE,45,0.7,2.2,99,0.01,,,0.09,pywws,2013-10-02 13:20:00,
2013-10-02 14:31:00,-999.0,-99.9,29.30,North,-999,-999.0,-999.0,-999,0.00,,,0.09,pywws,2013-10-02 13:31:00,
2013-10-02 14:40:00,65.3,65.0,29.29,East,90,0.7,2.2,99,0.00,,,0.09,pywws,2013-10-02 13:40:00,
2013-10-02 14:51:00,-999.0,-99.9,29.29,North,-999,-999.0,-999.0,-999,0.00,,,0.09,pywws,2013-10-02 13:51:00,
2013-10-02 15:00:00,64.4,64.1,29.30,East,90,0.0,1.6,99,0.00,,,0.09,pywws,2013-10-02 14:00:00,
2013-10-02 15:11:00,64.4,64.1,29.30,East,90,0.0,1.6,99,0.00,,,0.09,pywws,2013-10-02 14:11:00,
2013-10-02 15:20:00,63.5,63.2,29.30,NE,45,0.0,1.6,99,0.00,,,0.09,pywws,2013-10-02 14:20:00,
2013-10-02 15:31:00,62.8,62.5,29.30,NE,45,0.0,1.6,99,0.00,,,0.09,pywws,2013-10-02 14:31:00,
2013-10-02 15:40:00,62.4,62.1,29.30,SE,135,0.0,0.7,99,0.00,,,0.09,pywws,2013-10-02 14:40:00,
2013-10-02 15:51:00,62.2,62.0,29.30,SE,135,0.0,0.7,99,0.01,,,0.11,pywws,2013-10-02 14:51:00,
2013-10-02 16:00:00,62.2,62.0,29.29,NE,45,0.0,0.7,99,0.02,,,0.12,pywws,2013-10-02 15:00:00,
2013-10-02 16:11:00,62.1,61.8,29.29,North,-999,0.0,0.7,99,0.02,,,0.12,pywws,2013-10-02 15:11:00,
2013-10-02 16:20:00,62.2,62.0,29.30,East,90,0.0,0.0,99,0.04,,,0.13,pywws,2013-10-02 15:20:00,
2013-10-02 16:31:00,62.6,62.3,29.29,SE,135,0.0,0.7,99,0.04,,,0.13,pywws,2013-10-02 15:31:00,
2013-10-02 16:40:00,62.6,62.3,29.28,North,-999,0.0,0.7,99,0.04,,,0.13,pywws,2013-10-02 15:40:00,
2013-10-02 16:51:00,62.8,62.5,29.28,North,-999,0.0,0.7,99,0.02,,,0.13,pywws,2013-10-02 15:51:00,
2013-10-02 17:00:00,63.0,62.7,29.29,SE,135,0.0,1.6,99,0.01,,,0.13,pywws,2013-10-02 16:00:00,
2013-10-02 17:11:00,62.6,62.3,29.29,North,-999,0.0,0.0,99,0.01,,,0.13,pywws,2013-10-02 16:11:00,
2013-10-02 17:20:00,62.4,62.1,29.29,North,-999,0.0,0.0,99,0.00,,,0.13,pywws,2013-10-02 16:20:00,
2013-10-02 17:31:00,62.2,62.0,29.29,North,-999,0.0,0.0,99,0.01,,,0.14,pywws,2013-10-02 16:31:00,
2013-10-02 17:40:00,62.1,61.8,29.30,NE,45,0.0,1.6,99,0.01,,,0.14,pywws,2013-10-02 16:40:00,
2013-10-02 17:51:00,61.9,61.6,29.29,NE,45,0.0,0.7,99,0.01,,,0.14,pywws,2013-10-02 16:51:00,
2013-10-02 18:00:00,61.9,61.6,29.29,North,-999,0.0,0.0,99,0.01,,,0.14,pywws,2013-10-02 17:00:00,
2013-10-02 18:11:00,61.9,61.6,29.29,North,-999,0.0,0.7,99,0.01,,,0.14,pywws,2013-10-02 17:11:00,
2013-10-02 18:20:00,61.9,61.6,29.29,East,90,0.0,0.0,99,0.02,,,0.15,pywws,2013-10-02 17:20:00,
2013-10-02 18:31:00,61.7,61.4,29.29,NE,45,0.0,0.7,99,0.01,,,0.15,pywws,2013-10-02 17:31:00,
2013-10-02 18:40:00,61.5,61.2,29.29,SE,135,0.0,1.6,99,0.01,,,0.15,pywws,2013-10-02 17:40:00,
2013-10-02 18:51:00,61.3,61.1,29.29,NW,315,0.0,0.7,99,0.01,,,0.15,pywws,2013-10-02 17:51:00,
2013-10-02 19:00:00,60.8,60.5,29.28,SW,225,0.0,1.6,99,0.01,,,0.15,pywws,2013-10-02 18:00:00,
2013-10-02 19:11:00,60.6,60.3,29.29,SE,135,0.0,1.6,99,0.01,,,0.15,pywws,2013-10-02 18:11:00,
2013-10-02 19:20:00,60.4,60.2,29.28,North,-999,0.0,0.7,99,0.00,,,0.15,pywws,2013-10-02 18:20:00,
2013-10-02 19:31:00,60.4,60.2,29.29,North,-999,0.0,0.0,99,0.00,,,0.15,pywws,2013-10-02 18:31:00,
2013-10-02 19:40:00,60.4,60.2,29.29,NE,45,0.0,0.7,99,0.00,,,0.15,pywws,2013-10-02 18:40:00,
2013-10-02 19:51:00,60.4,60.2,29.29,NE,45,0.0,0.0,99,0.00,,,0.15,pywws,2013-10-02 18:51:00,
2013-10-02 20:00:00,60.4,60.2,29.29,North,-999,0.0,0.0,99,0.00,,,0.15,pywws,2013-10-02 19:00:00,
2013-10-02 20:11:00,60.4,60.2,29.29,North,-999,0.0,0.7,99,0.00,,,0.15,pywws,2013-10-02 19:11:00,
2013-10-02 20:20:00,60.4,60.2,29.28,West,270,0.0,0.0,99,0.00,,,0.15,pywws,2013-10-02 19:20:00,
2013-10-02 20:31:00,60.6,60.3,29.29,NE,45,0.7,3.1,99,0.01,,,0.17,pywws,2013-10-02 19:31:00,
2013-10-02 20:40:00,60.8,60.5,29.29,NW,315,0.0,1.6,99,0.01,,,0.17,pywws,2013-10-02 19:40:00,
2013-10-02 20:51:00,60.8,60.5,29.29,NE,45,1.6,3.8,99,0.01,,,0.17,pywws,2013-10-02 19:51:00,
2013-10-02 21:00:00,61.2,60.9,29.30,NE,45,0.7,3.8,99,0.01,,,0.17,pywws,2013-10-02 20:00:00,
2013-10-02 21:11:00,61.2,60.9,29.30,NE,45,0.7,2.2,99,0.01,,,0.17,pywws,2013-10-02 20:11:00,
2013-10-02 21:20:00,61.2,60.9,29.30,SE,135,0.0,2.2,99,0.01,,,0.17,pywws,2013-10-02 20:20:00,
2013-10-02 21:31:00,61.3,61.1,29.30,NE,45,0.0,0.7,99,0.00,,,0.17,pywws,2013-10-02 20:31:00,
2013-10-02 21:40:00,61.3,61.1,29.30,NE,45,0.0,0.7,99,0.00,,,0.17,pywws,2013-10-02 20:40:00,
2013-10-02 21:51:00,61.3,61.1,29.29,NE,45,0.0,0.7,99,0.00,,,0.17,pywws,2013-10-02 20:51:00,
2013-10-02 22:00:00,61.3,61.1,29.30,SE,135,0.7,2.2,99,0.00,,,0.17,pywws,2013-10-02 21:00:00,
2013-10-02 22:11:00,61.2,60.9,29.29,NE,45,0.0,1.6,99,0.00,,,0.17,pywws,2013-10-02 21:11:00,
2013-10-02 22:20:00,61.2,60.9,29.29,NE,45,0.0,0.7,99,0.00,,,0.17,pywws,2013-10-02 21:20:00,
2013-10-02 22:31:00,61.0,60.7,29.30,SE,135,0.7,3.8,99,0.00,,,0.17,pywws,2013-10-02 21:31:00,
2013-10-02 22:40:00,61.0,60.7,29.29,NE,45,0.0,0.7,99,0.00,,,0.17,pywws,2013-10-02 21:40:00,
2013-10-02 22:51:00,61.0,60.7,29.28,NE,45,0.0,1.6,99,0.00,,,0.17,pywws,2013-10-02 21:51:00,
2013-10-02 23:00:00,60.6,60.3,29.29,NE,45,0.0,0.0,99,0.00,,,0.17,pywws,2013-10-02 22:00:00,
2013-10-02 23:11:00,60.4,60.2,29.28,SW,225,0.0,0.7,99,0.00,,,0.17,pywws,2013-10-02 22:11:00,
2013-10-02 23:20:00,60.1,59.8,29.29,NE,45,0.7,2.2,99,0.00,,,0.17,pywws,2013-10-02 22:20:00,
2013-10-02 23:31:00,60.1,59.8,29.29,NE,45,0.0,0.7,99,0.00,,,0.17,pywws,2013-10-02 22:31:00,
2013-10-02 23:40:00,60.1,59.8,29.28,West,270,0.0,0.0,99,0.00,,,0.17,pywws,2013-10-02 22:40:00,
2013-10-02 23:51:00,60.1,59.8,29.29,NW,315,0.7,2.2,99,0.00,,,0.17,pywws,2013-10-02 22:51:00,